Terminal Aerodrome Forecast
Issued by NWS

Home | Current Version | Previous Version | Text Only | Print | Product List | Glossary On
Versions: 1 2 3 4 5 6 7 8 9 10 11 12 13 14 15
000
FTUS44 KLZK 301120
TAFBPK
TAF
KBPK 301120Z 3012/3112 00000KT P6SM VCFG SCT250
     FM301500 16006KT P6SM VCTS SCT050CB BKN080
      TEMPO 3017/3021 5SM -TSRA BR BKN025CB
     FM310100 VRB05KT P6SM VCTS SCT040CB BKN080=

USA.gov is the U.S. government's official web portal to all federal, state and local government web resources and services.